createdAt,value
2018-08-09T00:01:19.642Z,66.56
2018-08-09T00:03:48.434Z,66.87
2018-08-09T00:06:17.243Z,66.59
2018-08-09T00:08:46.031Z,67.26
2018-08-09T00:11:14.812Z,67.31
2018-08-09T00:13:43.576Z,67.56
2018-08-09T00:16:12.319Z,67.86
2018-08-09T00:18:41.028Z,67.27
2018-08-09T00:21:09.801Z,67.81
2018-08-09T00:23:38.573Z,67.23
2018-08-09T00:26:07.778Z,67.08
2018-08-09T00:28:36.575Z,67.04
2018-08-09T00:31:05.355Z,67.91
2018-08-09T00:33:34.107Z,67.89
2018-08-09T00:36:02.866Z,67.43
2018-08-09T00:38:31.644Z,67.06
2018-08-09T00:41:00.375Z,67.96
2018-08-09T00:43:29.142Z,67.42
2018-08-09T00:45:58.161Z,66.66
2018-08-09T00:48:26.935Z,67.71
2018-08-09T00:50:56.159Z,67.57
2018-08-09T00:53:24.938Z,68.32
2018-08-09T00:55:53.713Z,67.51
2018-08-09T00:58:22.457Z,67.54
2018-08-09T01:00:51.239Z,67.87
2018-08-09T01:03:19.969Z,68.13
2018-08-09T01:05:48.739Z,68.82
2018-08-09T01:08:17.575Z,68.30
2018-08-09T01:10:46.317Z,69.39
2018-08-09T01:13:15.481Z,69.98
2018-08-09T01:15:44.676Z,69.54
2018-08-09T01:18:13.454Z,69.01
2018-08-09T01:20:42.290Z,69.81
2018-08-09T01:23:11.110Z,70.18
2018-08-09T01:25:39.894Z,70.31
2018-08-09T01:28:08.638Z,70.36
2018-08-09T01:30:37.367Z,70.10
2018-08-09T01:33:06.639Z,70.09
2018-08-09T01:35:37.396Z,70.11
2018-08-09T01:38:08.228Z,70.02
2018-08-09T01:40:38.303Z,69.94
2018-08-09T01:43:18.530Z,69.53
2018-08-09T01:45:49.565Z,70.19
2018-08-09T01:48:18.403Z,70.56
2018-08-09T01:50:47.263Z,69.67
2018-08-09T01:53:16.027Z,69.48
2018-08-09T01:55:44.747Z,70.38
2018-08-09T01:58:13.542Z,70.75
2018-08-09T02:00:42.350Z,70.03
2018-08-09T02:03:11.124Z,69.76
2018-08-09T02:05:39.874Z,69.75
2018-08-09T02:08:08.614Z,70.40
2018-08-09T02:10:37.363Z,70.87
2018-08-09T02:13:06.174Z,70.22
2018-08-09T02:15:34.937Z,70.93
2018-08-09T02:18:03.831Z,71.14
2018-08-09T02:20:32.595Z,70.40
2018-08-09T02:23:01.389Z,70.46
2018-08-09T02:25:30.180Z,71.39
2018-08-09T02:27:58.999Z,71.12
2018-08-09T02:30:27.731Z,71.68
2018-08-09T02:32:56.515Z,70.83
2018-08-09T02:35:25.315Z,71.13
2018-08-09T02:37:54.075Z,71.78
2018-08-09T02:40:22.847Z,71.55
2018-08-09T02:42:51.570Z,71.87
2018-08-09T02:45:20.351Z,71.65
2018-08-09T02:47:49.111Z,72.01
2018-08-09T02:50:17.952Z,71.70
2018-08-09T02:52:46.743Z,71.43
2018-08-09T02:55:15.575Z,71.41
2018-08-09T02:57:44.313Z,71.65
2018-08-09T03:00:13.550Z,72.20
2018-08-09T03:02:42.373Z,71.44
2018-08-09T03:05:11.172Z,72.17
2018-08-09T03:07:40.012Z,72.28
2018-08-09T03:10:08.810Z,71.98
2018-08-09T03:12:37.550Z,71.54
2018-08-09T03:15:06.736Z,72.36
2018-08-09T03:17:35.602Z,71.76
2018-08-09T03:20:04.486Z,72.03
2018-08-09T03:22:33.267Z,72.62
2018-08-09T03:25:02.092Z,72.90
2018-08-09T03:27:31.228Z,72.59
2018-08-09T03:30:00.053Z,72.72
2018-08-09T03:32:29.001Z,73.79
2018-08-09T03:34:58.181Z,73.92
2018-08-09T03:37:26.921Z,73.60
2018-08-09T03:39:55.698Z,73.29
2018-08-09T03:42:24.437Z,73.33
2018-08-09T03:44:53.198Z,73.03
2018-08-09T03:47:21.880Z,72.84
2018-08-09T03:49:50.675Z,72.32
2018-08-09T03:52:23.152Z,72.93
2018-08-09T03:54:51.929Z,72.11
2018-08-09T03:57:20.760Z,72.15
2018-08-09T03:59:49.534Z,72.19
2018-08-09T04:02:18.428Z,72.56
2018-08-09T04:04:47.226Z,72.28
2018-08-09T04:07:15.987Z,71.23
2018-08-09T04:09:44.792Z,72.01
2018-08-09T04:12:13.602Z,72.03
2018-08-09T04:14:48.870Z,70.98
2018-08-09T04:17:19.837Z,70.95
2018-08-09T04:19:49.805Z,71.33
2018-08-09T04:22:18.951Z,71.04
2018-08-09T04:24:48.267Z,70.52
2018-08-09T04:27:17.347Z,70.54
2018-08-09T04:29:46.169Z,70.60
2018-08-09T04:32:15.014Z,69.77
2018-08-09T04:34:43.784Z,70.62
2018-08-09T04:37:12.548Z,70.58
2018-08-09T04:39:41.339Z,69.84
2018-08-09T04:42:10.216Z,69.67
2018-08-09T04:44:39.004Z,66.82
2018-08-09T04:47:07.822Z,64.86
2018-08-09T04:49:36.617Z,62.90
2018-08-09T04:52:05.512Z,60.93
2018-08-09T04:54:34.263Z,57.91
2018-08-09T04:57:03.090Z,55.64
2018-08-09T04:59:31.960Z,54.95
2018-08-09T05:02:00.805Z,52.91
2018-08-09T05:04:29.564Z,52.94
2018-08-09T05:06:58.380Z,53.56
2018-08-09T05:09:27.142Z,51.28
2018-08-09T05:11:55.940Z,52.09
2018-08-09T05:14:24.853Z,51.10
2018-08-09T05:16:53.786Z,52.14
2018-08-09T05:19:22.575Z,51.53
2018-08-09T05:21:51.330Z,49.75
2018-08-09T05:24:20.116Z,49.19
2018-08-09T05:26:48.976Z,50.32
2018-08-09T05:29:17.862Z,51.52
2018-08-09T05:31:46.681Z,51.21
2018-08-09T05:34:15.506Z,51.85
2018-08-09T05:36:44.431Z,53.72
2018-08-09T05:39:13.223Z,53.77
2018-08-09T05:41:42.450Z,55.61
2018-08-09T05:44:11.639Z,56.47
2018-08-09T05:46:40.427Z,56.68
2018-08-09T05:49:15.647Z,55.32
2018-08-09T05:51:44.425Z,55.96
2018-08-09T05:54:13.268Z,56.67
2018-08-09T05:56:41.990Z,57.20
2018-08-09T05:59:10.925Z,58.38
2018-08-09T06:01:39.774Z,59.61
2018-08-09T06:04:08.635Z,60.28
2018-08-09T06:06:37.441Z,61.22
2018-08-09T06:09:09.330Z,60.90
2018-08-09T06:11:38.113Z,60.50
2018-08-09T06:14:07.291Z,60.06
2018-08-09T06:16:36.075Z,60.48
2018-08-09T06:19:05.511Z,60.16
2018-08-09T06:21:34.338Z,60.34
2018-08-09T06:24:03.182Z,60.82
2018-08-09T06:26:32.000Z,59.98
2018-08-09T06:29:00.958Z,60.79
2018-08-09T06:31:30.187Z,60.83
2018-08-09T06:33:58.917Z,61.04
2018-08-09T06:36:27.895Z,60.84
2018-08-09T06:38:57.093Z,60.80
2018-08-09T06:41:25.911Z,61.66
2018-08-09T06:43:55.089Z,61.08
2018-08-09T06:46:23.899Z,60.69
2018-08-09T06:48:52.856Z,61.08
2018-08-09T06:51:21.642Z,59.71
2018-08-09T06:53:50.381Z,60.63
2018-08-09T06:56:19.215Z,60.32
2018-08-09T06:58:48.210Z,60.58
2018-08-09T07:01:17.010Z,60.61
2018-08-09T07:03:45.933Z,60.49
2018-08-09T07:06:14.672Z,59.11
2018-08-09T07:08:44.532Z,58.88
2018-08-09T07:11:13.323Z,57.29
2018-08-09T07:13:42.184Z,58.25
2018-08-09T07:16:11.487Z,58.23
2018-08-09T07:18:40.318Z,58.03
2018-08-09T07:21:09.337Z,59.01
2018-08-09T07:23:38.340Z,59.22
2018-08-09T07:26:07.094Z,58.05
2018-08-09T07:28:35.948Z,58.01
2018-08-09T07:31:04.788Z,57.65
2018-08-09T07:33:33.624Z,58.40
2018-08-09T07:36:02.439Z,57.43
2018-08-09T07:38:31.191Z,56.18
2018-08-09T07:41:00.019Z,56.50
2018-08-09T07:43:28.756Z,55.31
2018-08-09T07:45:57.569Z,55.73
2018-08-09T07:48:26.394Z,54.82
2018-08-09T07:50:55.366Z,53.58
2018-08-09T07:53:24.323Z,53.34
2018-08-09T07:55:53.090Z,54.36
2018-08-09T07:58:21.911Z,52.48
2018-08-09T08:00:50.797Z,53.93
2018-08-09T08:03:19.794Z,53.72
2018-08-09T08:05:48.749Z,53.37
2018-08-09T08:08:17.712Z,53.37
2018-08-09T08:10:48.227Z,52.74
2018-08-09T08:13:18.670Z,53.33
2018-08-09T08:15:47.607Z,53.17
2018-08-09T08:18:16.359Z,53.26
2018-08-09T08:20:45.592Z,52.20
2018-08-09T08:23:14.524Z,52.92
2018-08-09T08:25:43.285Z,52.77
2018-08-09T08:28:12.073Z,51.32
2018-08-09T08:30:40.839Z,52.35
2018-08-09T08:33:09.698Z,53.25
2018-08-09T08:35:38.446Z,52.02
2018-08-09T08:38:07.892Z,52.79
2018-08-09T08:40:36.682Z,51.66
2018-08-09T08:43:05.792Z,51.31
2018-08-09T08:45:34.955Z,49.04
2018-08-09T08:48:04.505Z,48.54
2018-08-09T08:50:33.320Z,47.94
2018-08-09T08:53:02.124Z,48.86
2018-08-09T08:55:31.243Z,46.61
2018-08-09T08:58:00.074Z,46.74
2018-08-09T09:00:28.919Z,47.32
2018-08-09T09:02:57.741Z,47.04
2018-08-09T09:05:26.908Z,47.04
2018-08-09T09:07:56.063Z,47.63
2018-08-09T09:10:24.969Z,47.09
2018-08-09T09:12:53.955Z,48.05
2018-08-09T09:15:22.882Z,47.81
2018-08-09T09:17:51.629Z,46.85
2018-08-09T09:20:20.415Z,46.77
2018-08-09T09:22:49.231Z,46.84
2018-08-09T09:25:17.964Z,46.75
2018-08-09T09:27:47.095Z,45.93
2018-08-09T09:30:17.184Z,45.97
2018-08-09T09:32:46.663Z,46.70
2018-08-09T09:35:15.490Z,45.59
2018-08-09T09:37:44.755Z,45.58
2018-08-09T09:40:13.636Z,44.38
2018-08-09T09:42:42.782Z,45.36
2018-08-09T09:45:11.551Z,46.12
2018-08-09T09:47:40.305Z,46.48
2018-08-09T09:50:10.428Z,44.13
2018-08-09T09:52:39.356Z,45.18
2018-08-09T09:55:08.164Z,45.30
2018-08-09T09:57:37.298Z,45.29
2018-08-09T10:00:12.245Z,44.06
2018-08-09T10:02:41.125Z,42.87
2018-08-09T10:05:09.879Z,43.22
2018-08-09T10:07:39.367Z,42.63
2018-08-09T10:10:08.438Z,42.03
2018-08-09T10:12:37.333Z,42.75
2018-08-09T10:15:06.326Z,44.06
2018-08-09T10:17:35.576Z,42.38
2018-08-09T10:20:04.590Z,41.46
2018-08-09T10:22:33.450Z,43.32
2018-08-09T10:25:02.282Z,42.71
2018-08-09T10:27:31.454Z,43.78
2018-08-09T10:30:00.385Z,42.86
2018-08-09T10:32:29.726Z,44.22
2018-08-09T10:38:19.989Z,44.98
2018-08-09T10:40:48.821Z,44.39
2018-08-09T10:43:17.665Z,44.93
2018-08-09T10:45:46.486Z,43.46
2018-08-09T10:48:15.330Z,45.29
2018-08-09T10:50:44.324Z,44.78
2018-08-09T10:53:13.127Z,43.22
2018-08-09T10:55:42.043Z,42.69
2018-08-09T10:58:11.057Z,42.17
2018-08-09T11:00:39.796Z,42.77
2018-08-09T11:03:08.537Z,42.13
2018-08-09T11:05:37.359Z,41.19
2018-08-09T11:08:06.311Z,40.18
2018-08-09T11:10:35.045Z,40.28
2018-08-09T11:13:03.826Z,39.90
2018-08-09T11:15:32.616Z,40.70
2018-08-09T11:18:01.505Z,40.21
2018-08-09T11:20:30.337Z,39.43
2018-08-09T11:22:59.139Z,40.36
2018-08-09T11:25:28.309Z,39.72
2018-08-09T11:27:57.066Z,40.84
2018-08-09T11:30:25.838Z,39.65
2018-08-09T11:32:54.613Z,40.37
2018-08-09T11:35:23.378Z,40.00
2018-08-09T11:37:52.218Z,40.79
2018-08-09T11:40:21.011Z,40.89
2018-08-09T11:42:49.782Z,40.51
2018-08-09T11:45:18.619Z,40.26
2018-08-09T11:47:47.388Z,40.46
2018-08-09T11:50:16.186Z,40.79
2018-08-09T11:52:45.348Z,40.53
2018-08-09T11:55:14.106Z,40.25
2018-08-09T11:57:42.863Z,39.93
2018-08-09T12:00:11.874Z,40.63
2018-08-09T12:02:40.653Z,40.47
2018-08-09T12:05:09.448Z,41.60
2018-08-09T12:07:38.263Z,41.60
2018-08-09T12:10:07.487Z,42.96
2018-08-09T12:12:36.279Z,41.69
2018-08-09T12:15:06.170Z,40.60
2018-08-09T12:17:35.382Z,40.35
2018-08-09T12:20:04.801Z,40.89
2018-08-09T12:22:33.733Z,41.59
2018-08-09T12:25:02.921Z,42.68
2018-08-09T12:27:31.722Z,42.08
2018-08-09T12:30:00.502Z,43.25
2018-08-09T12:32:29.423Z,41.98
2018-08-09T12:34:58.206Z,40.68
2018-08-09T12:37:27.094Z,41.16
2018-08-09T12:39:55.851Z,41.97
2018-08-09T12:42:24.712Z,41.83
2018-08-09T12:44:53.619Z,40.45
2018-08-09T12:47:22.403Z,41.18
2018-08-09T12:49:51.947Z,41.25
2018-08-09T12:52:23.641Z,39.98
2018-08-09T12:54:52.452Z,39.94
2018-08-09T12:57:21.251Z,40.63
2018-08-09T12:59:50.092Z,40.94
2018-08-09T13:02:19.316Z,40.09
2018-08-09T13:04:48.086Z,40.85
2018-08-09T13:07:16.879Z,40.09
2018-08-09T13:09:45.762Z,39.82
2018-08-09T13:12:15.208Z,39.11
2018-08-09T13:14:44.043Z,39.52
2018-08-09T13:17:12.820Z,41.19
2018-08-09T13:19:41.702Z,40.38
2018-08-09T13:22:10.474Z,39.94
2018-08-09T13:24:39.281Z,39.53
2018-08-09T13:27:08.243Z,39.52
2018-08-09T13:29:37.027Z,39.42
2018-08-09T13:32:05.818Z,40.25
2018-08-09T13:34:34.540Z,39.27
2018-08-09T13:37:03.740Z,40.10
2018-08-09T13:39:32.557Z,40.21
2018-08-09T13:42:01.726Z,39.47
2018-08-09T13:44:30.586Z,40.35
2018-08-09T13:46:59.373Z,40.05
2018-08-09T13:49:28.894Z,40.55
2018-08-09T13:51:57.656Z,40.74
2018-08-09T13:54:26.821Z,39.95
2018-08-09T13:56:55.610Z,40.44
2018-08-09T13:59:24.455Z,39.85
2018-08-09T14:01:53.282Z,39.42
2018-08-09T14:04:22.278Z,38.69
2018-08-09T14:06:51.083Z,39.09
2018-08-09T14:09:19.855Z,39.36
2018-08-09T14:11:48.639Z,39.20
2018-08-09T14:14:17.483Z,39.32
2018-08-09T14:16:46.286Z,38.58
2018-08-09T14:19:15.090Z,39.82
2018-08-09T14:21:44.231Z,38.73
2018-08-09T14:24:17.045Z,39.21
2018-08-09T14:26:48.949Z,39.46
2018-08-09T14:29:17.741Z,40.17
2018-08-09T14:31:47.042Z,39.91
2018-08-09T14:34:16.027Z,38.68
2018-08-09T14:36:44.937Z,39.99
2018-08-09T14:39:13.775Z,38.41
2018-08-09T14:41:42.972Z,39.16
2018-08-09T14:44:11.742Z,38.76
2018-08-09T14:46:40.606Z,39.13
2018-08-09T14:49:09.468Z,38.85
2018-08-09T14:51:38.376Z,40.36
2018-08-09T14:54:07.304Z,39.33
2018-08-09T14:56:36.187Z,39.53
2018-08-09T14:59:05.741Z,38.94
2018-08-09T15:01:34.656Z,39.36
2018-08-09T15:04:03.564Z,39.37
2018-08-09T15:06:32.441Z,39.79
2018-08-09T15:09:09.612Z,38.65
2018-08-09T15:11:38.596Z,38.76
2018-08-09T15:14:08.212Z,39.15
2018-08-09T15:16:37.481Z,40.05
2018-08-09T15:19:06.407Z,39.81
2018-08-09T15:21:35.292Z,40.22
2018-08-09T15:24:04.159Z,39.23
2018-08-09T15:26:33.343Z,39.81
2018-08-09T15:29:02.209Z,40.27
2018-08-09T15:31:31.423Z,39.97
2018-08-09T15:34:00.358Z,40.67
2018-08-09T15:36:29.646Z,40.52
2018-08-09T15:38:58.552Z,39.81
2018-08-09T15:41:27.381Z,40.88
2018-08-09T15:43:56.495Z,40.42
2018-08-09T15:46:25.429Z,39.74
2018-08-09T15:48:54.434Z,38.83
2018-08-09T15:51:23.443Z,40.55
2018-08-09T15:53:52.254Z,40.28
2018-08-09T15:56:21.158Z,40.10
2018-08-09T15:58:49.930Z,40.48
2018-08-09T16:01:18.667Z,39.61
2018-08-09T16:03:47.442Z,40.24
2018-08-09T16:06:16.246Z,40.81
2018-08-09T16:08:45.056Z,40.14
2018-08-09T16:11:13.897Z,40.35
2018-08-09T16:13:42.698Z,40.66
2018-08-09T16:16:11.617Z,39.66
2018-08-09T16:18:40.618Z,40.54
2018-08-09T16:21:09.427Z,40.33
2018-08-09T16:23:38.313Z,41.02
2018-08-09T16:26:07.816Z,41.60
2018-08-09T16:28:36.655Z,40.72
2018-08-09T16:31:05.418Z,40.49
2018-08-09T16:33:34.331Z,40.05
2018-08-09T16:36:03.147Z,40.71
2018-08-09T16:38:31.930Z,40.31
2018-08-09T16:41:00.728Z,41.05
2018-08-09T16:43:29.561Z,39.92
2018-08-09T16:45:58.349Z,41.14
2018-08-09T16:48:27.133Z,41.53
2018-08-09T16:50:55.987Z,43.45
2018-08-09T16:53:24.750Z,44.71
2018-08-09T16:55:53.598Z,44.78
2018-08-09T16:58:22.460Z,44.83
2018-08-09T17:00:51.268Z,46.28
2018-08-09T17:03:20.118Z,45.60
2018-08-09T17:05:48.938Z,47.21
2018-08-09T17:08:18.147Z,47.37
2018-08-09T17:10:46.970Z,47.27
2018-08-09T17:13:15.825Z,46.51
2018-08-09T17:15:44.716Z,47.75
2018-08-09T17:18:13.532Z,47.33
2018-08-09T17:20:42.690Z,48.66
2018-08-09T17:23:11.534Z,48.51
2018-08-09T17:25:40.468Z,48.07
2018-08-09T17:28:10.334Z,49.03
2018-08-09T17:30:39.290Z,48.42
2018-08-09T17:33:08.193Z,49.28
2018-08-09T17:35:37.068Z,49.69
2018-08-09T17:38:05.965Z,50.17
2018-08-09T17:40:35.095Z,50.31
2018-08-09T17:43:04.693Z,50.20
2018-08-09T17:45:34.982Z,50.38
2018-08-09T17:48:04.318Z,50.38
2018-08-09T17:50:33.189Z,50.27
2018-08-09T17:53:03.214Z,50.04
2018-08-09T17:55:32.744Z,50.59
2018-08-09T17:58:01.792Z,51.49
2018-08-09T18:00:33.380Z,51.45
2018-08-09T18:03:03.395Z,50.68
2018-08-09T18:05:32.906Z,50.55
2018-08-09T18:08:02.496Z,51.20
2018-08-09T18:10:33.345Z,50.48
2018-08-09T18:13:02.249Z,49.83
2018-08-09T18:15:31.938Z,49.83
2018-08-09T18:18:01.918Z,49.89
2018-08-09T18:20:35.480Z,49.36
2018-08-09T18:23:04.673Z,49.43
2018-08-09T18:25:34.190Z,49.81
2018-08-09T18:28:03.122Z,49.95
2018-08-09T18:30:31.980Z,49.06
2018-08-09T18:33:00.750Z,49.46
2018-08-09T18:35:29.732Z,49.36
2018-08-09T18:37:58.546Z,49.87
2018-08-09T18:40:28.145Z,50.30
2018-08-09T18:42:57.003Z,50.26
2018-08-09T18:45:25.954Z,49.25
2018-08-09T18:47:55.412Z,50.41
2018-08-09T18:50:29.250Z,50.10
2018-08-09T18:52:58.527Z,50.04
2018-08-09T18:55:27.314Z,50.73
2018-08-09T18:57:56.211Z,49.85
2018-08-09T19:00:27.142Z,49.80
2018-08-09T19:02:56.177Z,49.20
2018-08-09T19:05:25.341Z,49.03
2018-08-09T19:07:54.356Z,49.46
2018-08-09T19:10:25.914Z,49.01
2018-08-09T19:12:55.184Z,49.41
2018-08-09T19:15:24.120Z,49.06
2018-08-09T19:17:53.073Z,48.60
2018-08-09T19:20:27.461Z,49.04
2018-08-09T19:22:56.461Z,49.71
2018-08-09T19:25:25.787Z,49.52
2018-08-09T19:27:54.629Z,48.90
2018-08-09T19:30:25.576Z,49.81
2018-08-09T19:32:54.539Z,49.21
2018-08-09T19:35:24.007Z,49.03
2018-08-09T19:37:52.950Z,49.98
2018-08-09T19:40:26.638Z,48.93
2018-08-09T19:42:55.600Z,49.52
2018-08-09T19:45:24.460Z,49.07
2018-08-09T19:47:53.304Z,50.06
2018-08-09T19:50:26.224Z,49.42
2018-08-09T19:52:55.441Z,49.92
2018-08-09T19:56:03.957Z,49.41
2018-08-09T19:58:32.847Z,49.51
2018-08-09T20:01:01.727Z,49.27
2018-08-09T20:03:30.554Z,49.36
2018-08-09T20:05:59.512Z,49.80
2018-08-09T20:08:28.738Z,49.67
2018-08-09T20:10:57.534Z,49.49
2018-08-09T20:13:26.442Z,49.08
2018-08-09T20:15:55.353Z,49.30
2018-08-09T20:18:24.170Z,49.44
2018-08-09T20:20:54.416Z,50.13
2018-08-09T20:23:23.795Z,49.37
2018-08-09T20:25:52.656Z,49.19
2018-08-09T20:28:21.600Z,50.32
2018-08-09T20:30:50.581Z,50.14
2018-08-09T20:33:19.447Z,49.63
2018-08-09T20:35:48.562Z,49.46
2018-08-09T20:38:17.625Z,50.22
2018-08-09T20:40:46.481Z,50.18
2018-08-09T20:43:15.348Z,49.84
2018-08-09T20:45:44.213Z,50.02
2018-08-09T20:48:13.546Z,50.02
2018-08-09T20:50:42.361Z,50.52
2018-08-09T20:53:11.166Z,50.67
2018-08-09T20:55:40.410Z,51.14
2018-08-09T20:58:09.451Z,50.93
2018-08-09T21:00:38.377Z,50.85
2018-08-09T21:03:07.316Z,50.50
2018-08-09T21:05:38.421Z,50.46
2018-08-09T21:08:07.470Z,51.22
2018-08-09T21:10:37.279Z,50.96
2018-08-09T21:13:06.046Z,51.52
2018-08-09T21:15:35.376Z,51.68
2018-08-09T21:18:04.355Z,51.53
2018-08-09T21:20:33.517Z,51.58
2018-08-09T21:23:02.552Z,51.75
2018-08-09T21:25:31.735Z,52.13
2018-08-09T21:28:00.927Z,51.44
2018-08-09T21:30:29.750Z,51.64
2018-08-09T21:32:59.014Z,51.62
2018-08-09T21:35:27.805Z,51.09
2018-08-09T21:37:57.076Z,51.15
2018-08-09T21:40:25.978Z,51.98
2018-08-09T21:42:54.819Z,51.97
2018-08-09T21:45:23.656Z,51.14
2018-08-09T21:47:52.464Z,51.37
2018-08-09T21:50:23.073Z,52.09
2018-08-09T21:52:51.964Z,52.81
2018-08-09T21:55:20.754Z,52.19
2018-08-09T21:57:49.575Z,52.42
2018-08-09T22:00:36.818Z,52.83
2018-08-09T22:03:06.138Z,52.49
2018-08-09T22:05:41.193Z,53.70
2018-08-09T22:08:15.203Z,53.46
2018-08-09T22:10:49.533Z,53.85
2018-08-09T22:13:23.459Z,53.35
2018-08-09T22:15:57.535Z,53.75
2018-08-09T22:18:32.119Z,54.17
2018-08-09T22:21:06.407Z,53.87
2018-08-09T22:23:35.291Z,54.76
2018-08-09T22:26:04.297Z,53.98
2018-08-09T22:28:33.699Z,53.98
2018-08-09T22:31:02.445Z,54.86
2018-08-09T22:33:31.621Z,54.71
2018-08-09T22:36:00.552Z,55.48
2018-08-09T22:38:29.828Z,54.99
2018-08-09T22:40:59.334Z,55.41
2018-08-09T22:43:28.219Z,55.21
2018-08-09T22:45:57.398Z,56.51
2018-08-09T22:48:26.611Z,55.29
2018-08-09T22:50:56.079Z,55.98
2018-08-09T22:53:25.315Z,56.22
2018-08-09T22:55:54.174Z,55.16
2018-08-09T22:58:23.059Z,56.02
2018-08-09T23:00:52.275Z,55.53
2018-08-09T23:03:21.480Z,55.42
2018-08-09T23:05:50.305Z,55.10
2018-08-09T23:08:19.106Z,54.18
2018-08-09T23:10:48.320Z,54.96
2018-08-09T23:13:17.471Z,54.05
2018-08-09T23:15:46.312Z,54.74
2018-08-09T23:18:15.160Z,55.37
2018-08-09T23:20:43.966Z,54.78
2018-08-09T23:23:12.724Z,55.79
2018-08-09T23:25:41.643Z,55.67
2018-08-09T23:28:10.484Z,56.85
2018-08-09T23:30:39.273Z,57.37
2018-08-09T23:33:08.109Z,57.74
2018-08-09T23:35:37.320Z,58.24
2018-08-09T23:38:06.207Z,58.79
2018-08-09T23:40:41.450Z,58.31
2018-08-09T23:43:10.279Z,59.60
2018-08-09T23:45:39.050Z,59.82
2018-08-09T23:48:07.903Z,59.10
2018-08-09T23:50:36.732Z,59.92
2018-08-09T23:53:05.583Z,59.67
2018-08-09T23:55:34.363Z,61.06
2018-08-09T23:58:03.124Z,61.33
